createdAt,value
2022-08-22T00:00:14.222Z,16.20
2022-08-22T00:02:40.902Z,16.31
2022-08-22T00:02:54.356Z,18.53
2022-08-22T00:03:00.886Z,22.00
2022-08-22T00:03:02.937Z,18.46
2022-08-22T00:05:37.641Z,16.37
2022-08-22T00:08:10.743Z,16.37
2022-08-22T00:10:43.250Z,16.19
2022-08-22T00:13:22.568Z,16.21
2022-08-22T00:16:03.262Z,16.16
2022-08-22T00:18:53.992Z,15.34
2022-08-22T00:21:29.523Z,16.14
2022-08-22T00:24:17.737Z,16.14
2022-08-22T00:26:55.198Z,16.07
2022-08-22T00:29:27.181Z,15.91
2022-08-22T00:32:18.325Z,15.77
2022-08-22T00:34:54.238Z,15.67
2022-08-22T00:37:39.824Z,15.76
2022-08-22T00:40:27.945Z,15.69
2022-08-22T00:43:30.951Z,15.63
2022-08-22T00:46:02.215Z,15.51
2022-08-22T00:48:56.484Z,15.48
2022-08-22T00:51:48.019Z,15.39
2022-08-22T00:54:36.326Z,15.40
2022-08-22T00:57:28.297Z,15.34
2022-08-22T01:00:14.057Z,15.25
2022-08-22T01:03:13.421Z,15.19
2022-08-22T01:06:02.412Z,15.25
2022-08-22T01:08:54.332Z,15.34
2022-08-22T01:11:34.987Z,15.38
2022-08-22T01:14:42.934Z,15.31
2022-08-22T01:17:47.190Z,15.33
2022-08-22T01:20:54.652Z,15.28
2022-08-22T01:23:42.479Z,15.40
2022-08-22T01:26:44.857Z,15.35
2022-08-22T01:29:49.319Z,15.24
2022-08-22T01:32:37.581Z,15.22
2022-08-22T01:35:25.726Z,15.20
2022-08-22T01:38:29.974Z,15.19
2022-08-22T01:41:10.370Z,14.98
2022-08-22T01:43:59.262Z,14.84
2022-08-22T01:46:53.355Z,14.67
2022-08-22T01:49:22.580Z,14.53
2022-08-22T01:51:59.806Z,14.56
2022-08-22T01:54:47.840Z,14.53
2022-08-22T01:57:15.903Z,14.36
2022-08-22T01:59:52.977Z,14.02
2022-08-22T02:02:46.530Z,14.27
2022-08-22T02:05:31.014Z,14.13
2022-08-22T02:08:03.807Z,14.05
2022-08-22T02:10:48.769Z,14.14
2022-08-22T02:13:46.276Z,14.30
2022-08-22T02:16:25.361Z,14.33
2022-08-22T02:19:09.840Z,14.36
2022-08-22T02:21:53.958Z,14.38
2022-08-22T02:24:27.488Z,14.32
2022-08-22T02:27:27.188Z,14.31
2022-08-22T02:30:05.548Z,14.40
2022-08-22T02:32:40.994Z,14.37
2022-08-22T02:35:22.436Z,14.23
2022-08-22T02:38:07.175Z,14.16
2022-08-22T02:40:41.558Z,13.95
2022-08-22T02:43:33.976Z,13.97
2022-08-22T02:46:12.843Z,13.86
2022-08-22T02:48:42.476Z,13.71
2022-08-22T02:51:43.132Z,13.87
2022-08-22T02:54:31.504Z,13.90
2022-08-22T02:57:11.390Z,13.92
2022-08-22T03:00:31.742Z,13.50
2022-08-22T03:03:06.143Z,13.82
2022-08-22T03:05:35.742Z,13.67
2022-08-22T03:08:22.946Z,13.42
2022-08-22T03:11:18.716Z,13.10
2022-08-22T03:14:03.254Z,13.21
2022-08-22T03:16:38.925Z,12.94
2022-08-22T03:19:31.434Z,12.95
2022-08-22T03:22:02.987Z,12.90
2022-08-22T03:24:38.752Z,13.04
2022-08-22T03:27:32.500Z,13.11
2022-08-22T03:30:20.113Z,13.24
2022-08-22T03:32:48.581Z,12.68
2022-08-22T03:35:38.957Z,13.14
2022-08-22T03:38:22.334Z,13.29
2022-08-22T03:41:12.881Z,13.31
2022-08-22T03:44:00.633Z,13.08
2022-08-22T03:47:01.145Z,12.94
2022-08-22T03:49:58.928Z,12.96
2022-08-22T03:53:12.161Z,13.11
2022-08-22T03:56:09.725Z,13.21
2022-08-22T03:58:39.063Z,13.22
2022-08-22T04:01:57.885Z,13.18
2022-08-22T04:04:55.361Z,13.18
2022-08-22T04:07:33.463Z,13.09
2022-08-22T04:10:02.893Z,12.87
2022-08-22T04:12:43.288Z,12.83
2022-08-22T04:15:15.763Z,12.88
2022-08-22T04:18:06.674Z,12.84
2022-08-22T04:21:19.851Z,12.70
2022-08-22T04:23:57.853Z,12.61
2022-08-22T04:26:36.651Z,12.44
2022-08-22T04:29:17.666Z,12.43
2022-08-22T04:31:50.350Z,12.52
2022-08-22T04:34:28.537Z,12.58
2022-08-22T04:37:18.576Z,12.52
2022-08-22T04:40:23.063Z,12.43
2022-08-22T04:43:18.511Z,12.37
2022-08-22T04:46:36.804Z,12.51
2022-08-22T04:49:33.726Z,12.63
2022-08-22T04:52:33.849Z,12.46
2022-08-22T04:55:23.652Z,12.48
2022-08-22T04:58:06.862Z,12.36
2022-08-22T05:01:05.646Z,12.25
2022-08-22T05:03:46.707Z,12.09
2022-08-22T05:06:24.413Z,12.08
2022-08-22T05:09:16.093Z,12.13
2022-08-22T05:12:16.985Z,12.15
2022-08-22T05:15:52.427Z,12.22
2022-08-22T05:19:16.137Z,12.22
2022-08-22T05:23:29.131Z,12.53
2022-08-22T05:26:30.183Z,12.60
2022-08-22T05:29:12.991Z,12.76
2022-08-22T05:32:00.723Z,12.90
2022-08-22T05:35:01.574Z,12.89
2022-08-22T05:37:52.904Z,12.95
2022-08-22T05:40:41.524Z,13.10
2022-08-22T05:43:51.271Z,13.47
2022-08-22T05:46:50.059Z,13.98
2022-08-22T05:49:56.021Z,14.38
2022-08-22T05:53:06.483Z,14.85
2022-08-22T05:56:14.031Z,15.49
2022-08-22T05:59:51.034Z,15.55
2022-08-22T06:06:15.779Z,17.19
2022-08-22T06:09:19.587Z,17.95
2022-08-22T06:12:22.359Z,18.62
2022-08-22T06:15:21.257Z,19.12
2022-08-22T06:18:10.120Z,19.47
2022-08-22T06:20:53.346Z,19.83
2022-08-22T06:24:09.442Z,20.24
2022-08-22T06:26:55.022Z,20.65
2022-08-22T06:29:57.705Z,21.00
2022-08-22T06:32:59.807Z,21.15
2022-08-22T06:36:13.817Z,21.58
2022-08-22T06:39:27.251Z,21.71
2022-08-22T06:42:58.091Z,21.95
2022-08-22T06:46:10.398Z,22.30
2022-08-22T06:52:13.980Z,22.81
2022-08-22T06:55:11.479Z,22.94
2022-08-22T07:01:47.071Z,23.28
2022-08-22T07:05:03.042Z,23.26
2022-08-22T07:07:34.180Z,22.64
2022-08-22T07:10:20.073Z,22.62
2022-08-22T07:13:11.215Z,23.20
2022-08-22T07:16:23.899Z,23.53
2022-08-22T07:20:10.092Z,23.58
2022-08-22T07:26:12.493Z,22.81
2022-08-22T07:29:33.914Z,23.27
2022-08-22T07:32:37.521Z,23.13
2022-08-22T07:35:57.913Z,22.89
2022-08-22T07:39:43.973Z,23.09
2022-08-22T07:42:41.352Z,23.54
2022-08-22T07:45:44.665Z,23.29
2022-08-22T07:49:05.852Z,23.37
2022-08-22T07:51:54.845Z,23.76
2022-08-22T07:54:47.084Z,23.49
2022-08-22T07:57:22.364Z,23.59
2022-08-22T07:59:54.257Z,24.27
2022-08-22T08:02:22.881Z,24.96
2022-08-22T08:04:52.785Z,25.58
2022-08-22T08:07:24.721Z,26.00
2022-08-22T08:10:00.568Z,26.31
2022-08-22T08:12:38.291Z,26.52
2022-08-22T08:15:09.040Z,26.03
2022-08-22T08:17:38.361Z,26.54
2022-08-22T08:20:09.636Z,26.71
2022-08-22T08:22:38.617Z,26.35
2022-08-22T08:25:07.446Z,26.79
2022-08-22T08:27:57.106Z,27.27
2022-08-22T08:30:37.093Z,27.34
2022-08-22T08:33:25.156Z,27.12
2022-08-22T08:36:02.418Z,27.10
2022-08-22T08:38:36.357Z,26.99
2022-08-22T08:41:14.583Z,27.13
2022-08-22T08:44:17.041Z,26.99
2022-08-22T08:47:08.473Z,27.12
2022-08-22T08:49:50.416Z,27.58
2022-08-22T08:52:52.864Z,27.54
2022-08-22T08:55:25.724Z,27.80
2022-08-22T08:58:33.831Z,28.16
2022-08-22T09:01:19.441Z,28.57
2022-08-22T09:03:51.431Z,28.25
2022-08-22T09:07:01.211Z,28.03
2022-08-22T09:09:52.623Z,27.90
2022-08-22T09:12:37.187Z,28.03
2022-08-22T09:15:59.743Z,27.99
2022-08-22T09:19:14.552Z,27.78
2022-08-22T09:22:14.618Z,28.22
2022-08-22T09:24:57.133Z,28.24
2022-08-22T09:27:46.275Z,28.40
2022-08-22T09:30:19.564Z,28.46
2022-08-22T09:33:06.130Z,28.34
2022-08-22T09:35:51.077Z,28.48
2022-08-22T09:38:28.385Z,28.54
2022-08-22T09:41:13.525Z,28.53
2022-08-22T09:43:49.023Z,28.31
2022-08-22T09:46:52.080Z,28.35
2022-08-22T09:49:42.241Z,27.94
2022-08-22T09:52:47.087Z,27.75
2022-08-22T09:55:43.553Z,28.18
2022-08-22T09:58:42.131Z,28.32
2022-08-22T10:01:18.927Z,28.69
2022-08-22T10:03:45.312Z,28.96
2022-08-22T10:06:21.808Z,28.48
2022-08-22T10:09:03.744Z,28.31
2022-08-22T10:11:38.809Z,27.58
2022-08-22T10:14:21.998Z,27.85
2022-08-22T10:17:21.815Z,28.40
2022-08-22T10:19:58.786Z,28.82
2022-08-22T10:22:32.028Z,29.01
2022-08-22T10:25:31.889Z,29.59
2022-08-22T10:28:17.061Z,30.10
2022-08-22T10:31:21.094Z,30.54
2022-08-22T10:34:04.309Z,30.25
2022-08-22T10:36:43.986Z,29.78
2022-08-22T10:39:13.637Z,29.43
2022-08-22T10:42:06.753Z,28.81
2022-08-22T10:44:48.708Z,29.05
2022-08-22T10:47:21.902Z,29.14
2022-08-22T10:49:54.122Z,28.79
2022-08-22T10:52:32.143Z,28.52
2022-08-22T10:55:17.421Z,28.02
2022-08-22T10:58:04.564Z,27.26
2022-08-22T11:00:46.213Z,28.01
2022-08-22T11:03:26.058Z,27.94
2022-08-22T11:05:58.076Z,28.31
2022-08-22T11:09:02.061Z,28.69
2022-08-22T11:11:51.097Z,28.74
2022-08-22T11:14:33.054Z,28.37
2022-08-22T11:17:42.617Z,28.71
2022-08-22T11:20:31.853Z,28.40
2022-08-22T11:23:38.792Z,28.67
2022-08-22T11:26:46.751Z,29.40
2022-08-22T11:29:41.234Z,29.90
2022-08-22T11:32:25.554Z,30.10
2022-08-22T11:35:09.100Z,30.25
2022-08-22T11:38:01.242Z,30.06
2022-08-22T11:40:38.496Z,30.28
2022-08-22T11:43:47.826Z,30.13
2022-08-22T11:46:20.904Z,30.06
2022-08-22T11:49:14.496Z,29.38
2022-08-22T11:51:40.870Z,28.93
2022-08-22T11:54:30.959Z,28.63
2022-08-22T11:57:10.471Z,28.78
2022-08-22T11:59:43.207Z,28.53
2022-08-22T12:02:32.504Z,28.22
2022-08-22T12:05:09.752Z,27.79
2022-08-22T12:07:51.171Z,27.81
2022-08-22T12:10:21.673Z,27.81
2022-08-22T12:12:56.953Z,27.90
2022-08-22T12:16:10.478Z,27.90
2022-08-22T12:18:53.038Z,28.11
2022-08-22T12:21:32.580Z,27.37
2022-08-22T12:24:30.125Z,27.77
2022-08-22T12:26:59.444Z,27.60
2022-08-22T12:29:45.030Z,27.60
2022-08-22T12:32:49.269Z,27.36
2022-08-22T12:35:37.684Z,26.60
2022-08-22T12:38:28.185Z,26.42
2022-08-22T12:41:28.484Z,26.48
2022-08-22T12:44:24.437Z,26.28
2022-08-22T12:47:14.549Z,26.09
2022-08-22T12:50:08.359Z,25.75
2022-08-22T12:52:57.656Z,25.91
2022-08-22T12:55:38.072Z,26.03
2022-08-22T12:58:07.395Z,26.26
2022-08-22T13:00:43.797Z,26.21
2022-08-22T13:03:27.650Z,25.99
2022-08-22T13:06:00.323Z,25.89
2022-08-22T13:08:39.067Z,25.42
2022-08-22T13:11:14.636Z,25.70
2022-08-22T13:13:56.697Z,26.11
2022-08-22T13:16:26.268Z,25.97
2022-08-22T13:19:07.868Z,25.67
2022-08-22T13:21:57.184Z,26.09
2022-08-22T13:24:39.420Z,26.30
2022-08-22T13:27:20.393Z,26.45
2022-08-22T13:29:53.491Z,26.64
2022-08-22T13:32:37.661Z,26.71
2022-08-22T13:35:09.245Z,26.80
2022-08-22T13:37:44.279Z,26.92
2022-08-22T13:40:21.450Z,26.56
2022-08-22T13:42:54.211Z,26.42
2022-08-22T13:45:26.758Z,26.51
2022-08-22T13:48:03.711Z,26.34
2022-08-22T13:50:37.136Z,26.32
2022-08-22T13:53:31.244Z,26.41
2022-08-22T13:56:25.474Z,26.30
2022-08-22T13:59:00.075Z,26.15
2022-08-22T14:01:30.999Z,25.98
2022-08-22T14:04:00.430Z,26.18
2022-08-22T14:07:14.552Z,26.17
2022-08-22T14:10:26.116Z,26.24
2022-08-22T14:12:56.710Z,26.33
2022-08-22T14:15:33.919Z,26.38
2022-08-22T14:18:18.689Z,26.42
2022-08-22T14:20:47.485Z,26.41
2022-08-22T14:23:24.168Z,26.46
2022-08-22T14:25:53.779Z,26.53
2022-08-22T14:28:31.623Z,26.62
2022-08-22T14:31:07.324Z,26.63
2022-08-22T14:33:44.950Z,26.62
2022-08-22T14:36:18.038Z,26.50
2022-08-22T14:38:51.449Z,26.30
2022-08-22T14:41:56.285Z,26.43
2022-08-22T14:44:30.761Z,26.41
2022-08-22T14:47:03.841Z,26.41
2022-08-22T14:49:52.778Z,26.48
2022-08-22T14:52:37.889Z,26.40
2022-08-22T14:55:19.163Z,26.34
2022-08-22T14:57:51.997Z,26.41
2022-08-22T15:00:44.088Z,26.40
2022-08-22T15:03:23.834Z,26.47
2022-08-22T15:05:57.877Z,26.41
2022-08-22T15:08:32.893Z,26.49
2022-08-22T15:11:18.453Z,26.60
2022-08-22T15:14:00.369Z,26.68
2022-08-22T15:16:50.966Z,26.61
2022-08-22T15:19:32.708Z,26.54
2022-08-22T15:22:11.424Z,26.51
2022-08-22T15:24:50.429Z,26.51
2022-08-22T15:27:21.800Z,26.50
2022-08-22T15:29:52.706Z,26.56
2022-08-22T15:32:26.603Z,26.65
2022-08-22T15:35:02.322Z,26.70
2022-08-22T15:37:32.835Z,26.74
2022-08-22T15:40:02.855Z,26.66
2022-08-22T15:42:40.557Z,26.77
2022-08-22T15:45:17.820Z,26.93
2022-08-22T15:47:50.868Z,26.74
2022-08-22T15:50:36.582Z,26.83
2022-08-22T15:53:06.860Z,26.92
2022-08-22T15:55:34.414Z,26.92
2022-08-22T15:58:05.577Z,26.75
2022-08-22T16:01:05.874Z,26.99
2022-08-22T16:04:07.935Z,27.13
2022-08-22T16:06:48.394Z,27.01
2022-08-22T16:09:38.375Z,27.14
2022-08-22T16:12:25.522Z,27.11
2022-08-22T16:14:53.236Z,26.78
2022-08-22T16:17:28.415Z,26.65
2022-08-22T16:20:12.083Z,26.77
2022-08-22T16:22:58.551Z,26.79
2022-08-22T16:25:46.863Z,26.61
2022-08-22T16:28:54.694Z,26.45
2022-08-22T16:31:43.003Z,26.43
2022-08-22T16:34:15.609Z,26.47
2022-08-22T16:36:48.457Z,26.26
2022-08-22T16:39:21.188Z,26.39
2022-08-22T16:41:53.286Z,26.36
2022-08-22T16:44:38.336Z,26.43
2022-08-22T16:47:41.627Z,26.48
2022-08-22T16:50:22.430Z,26.48
2022-08-22T16:52:58.077Z,26.50
2022-08-22T16:55:30.566Z,26.55
2022-08-22T16:58:20.244Z,26.54
2022-08-22T17:01:15.082Z,26.50
2022-08-22T17:04:04.274Z,26.59
2022-08-22T17:06:45.847Z,26.61
2022-08-22T17:09:14.342Z,26.63
2022-08-22T17:12:02.564Z,26.56
2022-08-22T17:14:52.003Z,26.46
2022-08-22T17:17:55.867Z,26.38
2022-08-22T17:20:29.311Z,26.28
2022-08-22T17:23:18.076Z,26.18
2022-08-22T17:26:22.190Z,26.14
2022-08-22T17:29:12.750Z,25.89
2022-08-22T17:31:52.349Z,25.88
2022-08-22T17:34:39.460Z,25.87
2022-08-22T17:37:33.769Z,25.82
2022-08-22T17:40:25.302Z,25.66
2022-08-22T17:43:03.969Z,25.57
2022-08-22T17:45:55.184Z,25.59
2022-08-22T17:48:31.594Z,25.44
2022-08-22T17:51:12.565Z,25.64
2022-08-22T17:53:48.293Z,25.61
2022-08-22T17:56:24.259Z,25.51
2022-08-22T17:59:04.987Z,25.48
2022-08-22T18:01:41.181Z,25.39
2022-08-22T18:04:22.886Z,25.23
2022-08-22T18:06:58.280Z,25.03
2022-08-22T18:09:34.508Z,24.90
2022-08-22T18:12:15.682Z,24.83
2022-08-22T18:14:53.753Z,24.46
2022-08-22T18:17:28.418Z,24.61
2022-08-22T18:20:03.488Z,24.57
2022-08-22T18:22:36.606Z,24.51
2022-08-22T18:25:17.630Z,24.39
2022-08-22T18:27:53.887Z,24.34
2022-08-22T18:30:29.183Z,24.36
2022-08-22T18:33:11.481Z,24.30
2022-08-22T18:35:53.774Z,24.02
2022-08-22T18:38:29.512Z,23.95
2022-08-22T18:41:05.511Z,23.88
2022-08-22T18:43:41.825Z,23.70
2022-08-22T18:46:27.450Z,23.60
2022-08-22T18:49:14.772Z,23.53
2022-08-22T18:51:43.054Z,23.51
2022-08-22T18:54:11.325Z,23.42
2022-08-22T18:56:59.910Z,23.35
2022-08-22T18:59:53.552Z,23.24
2022-08-22T19:02:58.438Z,23.15
2022-08-22T19:05:34.020Z,22.99
2022-08-22T19:08:01.122Z,22.89
2022-08-22T19:10:50.077Z,22.78
2022-08-22T19:13:51.454Z,22.34
2022-08-22T19:16:31.861Z,22.13
2022-08-22T19:19:17.209Z,21.77
2022-08-22T19:22:21.692Z,21.70
2022-08-22T19:25:09.861Z,21.37
2022-08-22T19:27:41.377Z,21.43
2022-08-22T19:30:33.850Z,21.49
2022-08-22T19:33:19.540Z,21.27
2022-08-22T19:35:53.986Z,21.33
2022-08-22T19:38:54.417Z,21.38
2022-08-22T19:41:43.394Z,21.41
2022-08-22T19:44:19.182Z,21.32
2022-08-22T19:47:10.100Z,21.32
2022-08-22T19:49:40.594Z,21.08
2022-08-22T19:52:22.985Z,20.92
2022-08-22T19:55:02.981Z,21.15
2022-08-22T19:57:38.178Z,20.66
2022-08-22T20:00:17.922Z,21.12
2022-08-22T20:03:03.205Z,21.00
2022-08-22T20:05:57.559Z,21.06
2022-08-22T20:08:43.301Z,20.92
2022-08-22T20:11:40.448Z,20.94
2022-08-22T20:14:30.569Z,20.87
2022-08-22T20:17:24.310Z,20.87
2022-08-22T20:22:45.652Z,20.75
2022-08-22T20:25:44.196Z,20.67
2022-08-22T20:28:29.662Z,20.57
2022-08-22T20:31:04.610Z,20.76
2022-08-22T20:33:38.630Z,20.78
2022-08-22T20:36:28.117Z,20.87
2022-08-22T20:39:00.568Z,20.84
2022-08-22T20:41:33.505Z,20.82
2022-08-22T20:44:28.286Z,20.76
2022-08-22T20:47:00.110Z,20.60
2022-08-22T20:49:31.678Z,20.68
2022-08-22T20:52:05.017Z,20.10
2022-08-22T20:54:38.308Z,20.37
2022-08-22T20:57:19.449Z,20.35
2022-08-22T21:00:03.538Z,20.37
2022-08-22T21:02:44.907Z,20.45
2022-08-22T21:05:11.339Z,20.48
2022-08-22T21:07:44.641Z,20.15
2022-08-22T21:10:35.904Z,20.53
2022-08-22T21:13:10.347Z,20.47
2022-08-22T21:15:45.772Z,20.39
2022-08-22T21:18:22.771Z,20.28
2022-08-22T21:20:50.740Z,20.37
2022-08-22T21:23:17.608Z,20.25
2022-08-22T21:25:53.244Z,20.32
2022-08-22T21:28:35.531Z,20.28
2022-08-22T21:31:10.814Z,20.25
2022-08-22T21:33:43.718Z,20.09
2022-08-22T21:36:12.741Z,20.01
2022-08-22T21:38:40.506Z,19.99
2022-08-22T21:41:07.278Z,19.89
2022-08-22T21:48:00.956Z,19.97
2022-08-22T21:50:34.493Z,19.94
2022-08-22T21:53:11.807Z,20.01
2022-08-22T21:55:47.838Z,20.04
2022-08-22T21:58:34.915Z,20.05
2022-08-22T22:01:28.451Z,20.08
2022-08-22T22:03:56.502Z,20.08
2022-08-22T22:06:22.962Z,19.90
2022-08-22T22:08:49.392Z,19.94
2022-08-22T22:11:17.003Z,19.71
2022-08-22T22:13:44.355Z,19.90
2022-08-22T22:16:14.719Z,20.01
2022-08-22T22:18:41.156Z,19.99
2022-08-22T22:21:08.390Z,20.03
2022-08-22T22:23:35.081Z,19.84
2022-08-22T22:26:04.581Z,19.82
2022-08-22T22:28:34.348Z,19.79
2022-08-22T22:31:01.356Z,19.62
2022-08-22T22:33:30.713Z,19.70
2022-08-22T22:36:00.884Z,19.78
2022-08-22T22:38:27.280Z,19.68
2022-08-22T22:40:53.918Z,19.64
2022-08-22T22:43:20.654Z,19.60
2022-08-22T22:45:47.086Z,19.63
2022-08-22T22:48:23.884Z,19.68
2022-08-22T22:50:51.761Z,19.68
2022-08-22T22:53:19.676Z,19.68
2022-08-22T22:55:57.717Z,19.72
2022-08-22T22:58:26.929Z,19.66
2022-08-22T23:00:53.415Z,19.49
2022-08-22T23:03:20.220Z,19.51
2022-08-22T23:05:46.804Z,19.47
2022-08-22T23:08:13.210Z,19.47
2022-08-22T23:10:39.869Z,19.39
2022-08-22T23:13:06.613Z,19.41
2022-08-22T23:15:33.053Z,19.42
2022-08-22T23:17:59.616Z,19.40
2022-08-22T23:20:26.171Z,19.27
2022-08-22T23:25:19.006Z,19.25
2022-08-22T23:27:48.807Z,19.20
2022-08-22T23:30:20.048Z,19.13
2022-08-22T23:32:46.533Z,19.09
2022-08-22T23:35:13.459Z,19.04
2022-08-22T23:37:39.877Z,19.03
2022-08-22T23:40:10.385Z,19.01
2022-08-22T23:42:36.885Z,18.78
2022-08-22T23:45:04.589Z,18.92
2022-08-22T23:47:31.036Z,18.83
2022-08-22T23:49:57.439Z,18.71
2022-08-22T23:52:24.479Z,18.78
2022-08-22T23:54:51.579Z,18.59
2022-08-22T23:57:26.365Z,18.70
2022-08-22T23:59:57.413Z,18.61
